AirNav   Phillips 66 Aviation Fuel
 
 1338 users online  

OG38 Willamette Valley Medical Center Heliport
McMinnville, Oregon, USA

GOING TO MCMINNVILLE?


FAA INFORMATION EFFECTIVE 08 NOVEMBER 2018

Location

FAA Identifier: OG38
Lat/Long: 45-11-56.3800N / 123-09-58.8000W
45-11.939667N / 123-09.980000W
45.1989944 / -123.1663333
(estimated)
Elevation: 159 ft. / 48 m (estimated)
Variation: 18E (2000)
From city: 2 miles SE of MCMINNVILLE, OR
Time zone: UTC -8 (UTC -7 during Daylight Saving Time)
Zip code: 97128

Heliport Operations

Heliport use: Private use. Permission required prior to landing
Activation date: 07/2002
Control tower: no
ARTCC: SEATTLE CENTER
FSS: MC MINNVILLE FLIGHT SERVICE STATION
Attendance: UNATNDD
Wind indicator: lighted
Segmented circle: no
Lights: FOR PERIMETER LGTS CALL 503-435-6558.

Heliport Communications

WX ASOS at MMV (1.3 nm E): 135.675 (503-434-9153)
WX ASOS at UAO (17 nm E): PHONE 503-678-3011
WX ASOS at SLE (19 nm S): 124.55 (503-371-1062)

Nearby radio navigation aids

VOR radial/distance  VOR name  Freq  Var
UBGr200/12.2NEWBERG VOR/DME117.4021E

 
NDB name  Hdg/Dist  Freq  Var  ID
BANKS175/26.435616EPND .--. -. -..
LEWISBURG352/35.422515ELWG .-.. .-- --.

Heliport Services

Runway Information

Helipad H1

Dimensions: 44 x 44 ft. / 13 x 13 m
Surface: concrete, in good condition
Runway edge lights: PERI
Operational restrictions: CIRCULAR
Latitude: 45-11.939667N
Longitude: 123-09.980000W
Elevation: 159.0 ft.
Traffic pattern: leftleft

Heliport Ownership and Management from official FAA records

Ownership: Privately-owned
Owner: WILLAMETTE VALLEY MEDICAL CENTER
2700 SE STRATUS AVE
MCMINNVILLE, OR 97128
Phone 503-472-6131
X6560
Manager: JENNY ROOT RAVIA
2700 SE STRATUS AVE
MCMINNVILLE, OR 97128
Phone (503) 435-6376

Additional Remarks

FOR CD CTC PORTLAND APCH AT 503-493-7545.

Instrument Procedures

There are no published instrument procedures at OG38.

Some nearby airports with instrument procedures:

KMMV - Mc Minnville Municipal Airport (1 nm E)
KUAO - Aurora State Airport (17 nm E)
KSLE - McNary Field Airport (19 nm S)
KHIO - Portland-Hillsboro Airport (23 nm NE)
KTMK - Tillamook Airport (30 nm NW)
 
Loc | Ops | Rwys | IFR | FBO | Links
Com | Nav | Svcs | Stats | Notes


 
Area around OG38 (Willamette Valley Medical Center Heliport)
 
Road maps at: MapQuest Bing Google
 
Aerial photo
WARNING: Photo may not be current or correct
Aerial photo of OG38 (Willamette Valley Medical Center Heliport)
Do you have a better or more recent aerial photo of Willamette Valley Medical Center Heliport that you would like to share? If so, please send us your photo.

 
Sectional chart

 
Airport distance calculator
Flying to Willamette Valley Medical Center Heliport? Find the distance to fly.

From to OG38

Sunrise and sunset
Times for 20-Nov-2018
 Local
(UTC-8)
 Zulu
(UTC)
Morning civil twilight06:4614:46
Sunrise07:1915:19
Sunset16:3800:38
Evening civil twilight17:1001:10

Current date and time
Zulu (UTC)  20-Nov-2018 14:54:03
Local (UTC-8)  20-Nov-2018 06:54:03
 
METAR
KMMV 201353Z AUTO 00000KT 10SM CLR M03/M03 A3001 RMK AO2 SLP163 T10281028
KUAO 
17nm E 
201439Z AUTO 00000KT 3SM BR BKN001 M02/M03 A3003 RMK AO2 I1000 T10171028
KSLE 
19nm S 
201356Z AUTO 00000KT 10SM CLR M01/M03 A3001 RMK AO2 SLP163 T10111028
TAF
KUAO 
17nm E 
201249Z 2013/2112 00000KT 3SM BR BCFG SKC TEMPO 2013/2016 1SM BR FM202200 VRB03KT P6SM SCT200 FM210800 VRB03KT P6SM OVC100
KSLE 
19nm S 
201130Z 2012/2112 00000KT P6SM SKC TEMPO 2012/2016 6SM BR MIFG FM201900 36003KT P6SM SCT200 FM210500 00000KT P6SM OVC100
NOTAMs
Click for the latest NOTAMs
NOTAMs are issued by the DoD/FAA and will open in a separate window not controlled by AirNav.

 

 
 

Would you like to see your business listed on this page?

 If your business provides an interesting product or service to pilots, flight crews, aircraft, or users of the Willamette Valley Medical Center Heliport, you should consider listing it here.  To start the listing process, click on the button below
 
Add a business
 

Other Pages about Willamette Valley Medical Center Heliport

Update a link
 
Copyright © AirNav, LLC. All rights reserved. Privacy Policy  Contact